Time;durP1;ratioP1;P1;durP2;ratioP2;P2;SDS_P1;SDS_P2;PMS_P1;PMS_P2;Temp;Humidity;BMP_temperature;BMP_pressure;BME280_temperature;BME280_humidity;BME280_pressure;Samples;Min_cycle;Max_cycle;Signal;HPM_P1;HPM_P2
2022/04/01 00:00:08;;;;;;;4.35;2.90;;;;;;;;;;5075534;28;20077;-25
2022/04/01 00:02:34;;;;;;;5.28;2.75;;;;;;;;;;5075251;28;20080;-25
2022/04/01 00:05:00;;;;;;;3.05;2.75;;;;;;;;;;5075173;28;20546;-25
2022/04/01 00:07:26;;;;;;;3.08;2.67;;;;;;;;;;5057341;28;20509;-25
2022/04/01 00:09:52;;;;;;;4.25;2.80;;;;;;;;;;5074652;28;20036;-25
2022/04/01 00:12:19;;;;;;;4.72;3.03;;;;;;;;;;5074579;28;20434;-25
2022/04/01 00:14:45;;;;;;;6.63;3.00;;;;;;;;;;5075493;28;20076;-25
2022/04/01 00:17:11;;;;;;;4.35;3.28;;;;;;;;;;5074959;28;20048;-25
2022/04/01 00:19:37;;;;;;;4.88;2.95;;;;;;;;;;5040746;28;20040;-26
2022/04/01 00:22:05;;;;;;;4.78;3.15;;;;;;;;;;5075608;28;20405;-27
2022/04/01 00:24:32;;;;;;;4.53;2.92;;;;;;;;;;5075332;28;20106;-29
2022/04/01 00:26:58;;;;;;;4.88;2.97;;;;;;;;;;5074856;28;20051;-32
2022/04/01 00:29:25;;;;;;;4.78;3.08;;;;;;;;;;5056933;28;20036;-29
2022/04/01 00:31:58;;;;;;;3.95;3.00;;;;;;;;;;5056620;28;20040;-30
2022/04/01 00:34:26;;;;;;;5.23;2.87;;;;;;;;;;5074807;28;20083;-30
2022/04/01 00:36:52;;;;;;;4.85;2.78;;;;;;;;;;5055122;28;20283;-30
2022/04/01 00:39:19;;;;;;;4.32;3.17;;;;;;;;;;5068468;28;20047;-29
2022/04/01 00:41:47;;;;;;;4.18;2.80;;;;;;;;;;5072433;28;20079;-30
2022/04/01 00:44:18;;;;;;;5.25;2.53;;;;;;;;;;5054338;28;20076;-30
2022/04/01 00:46:46;;;;;;;3.30;2.53;;;;;;;;;;5072351;28;20037;-31
2022/04/01 00:49:12;;;;;;;4.40;2.50;;;;;;;;;;5072340;28;20045;-30
2022/04/01 00:51:41;;;;;;;2.65;2.28;;;;;;;;;;5071888;28;20099;-29
2022/04/01 00:54:08;;;;;;;4.32;3.08;;;;;;;;;;5072160;28;20033;-29
2022/04/01 00:56:35;;;;;;;5.35;2.92;;;;;;;;;;5072708;28;20242;-29
2022/04/01 00:59:02;;;;;;;3.35;2.22;;;;;;;;;;5074266;28;20466;-29
2022/04/01 01:01:29;;;;;;;3.28;2.67;;;;;;;;;;5073705;28;20517;-30
2022/04/01 01:03:55;;;;;;;2.83;2.30;;;;;;;;;;5055867;28;20040;-30
2022/04/01 01:06:22;;;;;;;3.47;2.80;;;;;;;;;;5074243;28;20071;-31
2022/04/01 01:08:48;;;;;;;5.90;2.42;;;;;;;;;;5073901;28;20041;-30
2022/04/01 01:11:14;;;;;;;6.53;2.25;;;;;;;;;;5073753;28;20044;-30
2022/04/01 01:13:41;;;;;;;3.30;2.10;;;;;;;;;;5073757;28;20048;-30
2022/04/01 01:16:07;;;;;;;3.90;2.30;;;;;;;;;;5072825;28;20494;-31
2022/04/01 01:18:34;;;;;;;3.75;2.22;;;;;;;;;;5073578;28;20045;-31
2022/04/01 01:21:00;;;;;;;3.95;2.72;;;;;;;;;;5056422;28;20060;-25
2022/04/01 01:23:35;;;;;;;4.97;2.47;;;;;;;;;;5074800;28;20036;-29
2022/04/01 01:26:01;;;;;;;4.15;2.70;;;;;;;;;;5073670;28;20094;-29
2022/04/01 01:28:27;;;;;;;3.40;2.13;;;;;;;;;;5072818;28;20044;-30
2022/04/01 01:30:54;;;;;;;3.08;2.05;;;;;;;;;;5073331;28;20068;-29
2022/04/01 01:33:21;;;;;;;2.63;2.15;;;;;;;;;;5073273;28;20429;-30
2022/04/01 01:35:47;;;;;;;3.92;2.03;;;;;;;;;;5073281;28;20072;-28
2022/04/01 01:38:17;;;;;;;3.55;2.35;;;;;;;;;;5055282;28;20109;-31
2022/04/01 01:40:43;;;;;;;5.50;2.80;;;;;;;;;;5072726;28;20081;-31
2022/04/01 01:43:09;;;;;;;4.25;2.60;;;;;;;;;;5071707;28;20124;-31
2022/04/01 01:45:36;;;;;;;3.15;2.45;;;;;;;;;;5071709;28;20044;-31
2022/04/01 01:48:02;;;;;;;4.18;2.50;;;;;;;;;;5071642;28;20079;-29
2022/04/01 01:55:57;;;;;;;5.10;2.50;;;;;;;;;;5071583;28;20123;-30
2022/04/01 01:58:23;;;;;;;5.22;2.78;;;;;;;;;;5071696;28;20047;-30
2022/04/01 02:00:49;;;;;;;3.08;2.30;;;;;;;;;;5071251;28;20048;-29
2022/04/01 02:03:17;;;;;;;5.32;2.63;;;;;;;;;;5071034;28;20044;-30
2022/04/01 02:05:43;;;;;;;4.25;2.80;;;;;;;;;;5071701;28;20497;-31
2022/04/01 02:08:09;;;;;;;2.95;2.35;;;;;;;;;;5071509;28;20048;-29
2022/04/01 02:10:35;;;;;;;4.25;2.70;;;;;;;;;;5071245;28;20073;-30
2022/04/01 02:13:01;;;;;;;5.80;2.42;;;;;;;;;;5071044;28;20040;-30
2022/04/01 02:15:27;;;;;;;6.88;3.00;;;;;;;;;;5071380;28;20044;-28
2022/04/01 02:17:53;;;;;;;4.82;2.28;;;;;;;;;;5071002;28;20046;-30
2022/04/01 02:20:19;;;;;;;3.83;2.75;;;;;;;;;;5071310;28;20051;-30
2022/04/01 02:22:45;;;;;;;4.05;2.47;;;;;;;;;;5071006;28;20391;-30
2022/04/01 02:25:12;;;;;;;4.05;3.10;;;;;;;;;;5071036;28;20048;-31
2022/04/01 02:27:38;;;;;;;4.78;2.08;;;;;;;;;;5071041;28;20127;-30
2022/04/01 02:30:10;;;;;;;4.70;2.63;;;;;;;;;;5070992;28;20032;-29
2022/04/01 02:32:44;;;;;;;4.20;2.33;;;;;;;;;;5070824;28;20037;-30
2022/04/01 02:35:11;;;;;;;4.05;2.30;;;;;;;;;;5071509;28;20418;-30
2022/04/01 02:37:38;;;;;;;3.03;2.63;;;;;;;;;;5071125;28;20049;-29
2022/04/01 02:40:05;;;;;;;6.15;2.38;;;;;;;;;;5070967;28;20040;-30
2022/04/01 02:42:31;;;;;;;2.97;2.40;;;;;;;;;;5070789;28;20083;-29
2022/04/01 02:44:57;;;;;;;7.03;2.58;;;;;;;;;;5070540;28;20051;-30
2022/04/01 02:47:24;;;;;;;6.38;2.65;;;;;;;;;;5071194;28;20413;-32
2022/04/01 02:49:51;;;;;;;4.80;2.65;;;;;;;;;;5053206;28;20048;-29
2022/04/01 02:52:17;;;;;;;3.67;2.55;;;;;;;;;;5071520;28;20044;-29
2022/04/01 02:54:43;;;;;;;3.38;2.60;;;;;;;;;;5072079;28;20037;-31
2022/04/01 02:57:09;;;;;;;3.58;2.50;;;;;;;;;;5071247;28;20563;-30
2022/04/01 02:59:36;;;;;;;4.90;2.55;;;;;;;;;;5070823;28;20045;-30
2022/04/01 03:02:03;;;;;;;3.72;2.60;;;;;;;;;;5070503;28;20123;-30
2022/04/01 03:04:29;;;;;;;3.05;2.65;;;;;;;;;;5070981;28;20036;-31
2022/04/01 03:06:55;;;;;;;2.97;2.17;;;;;;;;;;5074558;28;20541;-30
2022/04/01 03:09:21;;;;;;;4.43;2.58;;;;;;;;;;5074492;28;20493;-29
2022/04/01 03:11:48;;;;;;;4.00;2.10;;;;;;;;;;5074331;28;20111;-30
2022/04/01 03:14:14;;;;;;;4.40;2.63;;;;;;;;;;5074584;28;20036;-30
2022/04/01 03:16:40;;;;;;;3.70;2.25;;;;;;;;;;5074566;28;20032;-30
2022/04/01 03:19:10;;;;;;;4.47;2.40;;;;;;;;;;5074598;28;20051;-29
2022/04/01 03:21:37;;;;;;;3.53;2.20;;;;;;;;;;5073991;28;20461;-31
2022/04/01 03:24:04;;;;;;;3.88;2.20;;;;;;;;;;5074529;28;20551;-30
2022/04/01 03:26:30;;;;;;;3.28;2.25;;;;;;;;;;5074011;28;20045;-31
2022/04/01 03:28:56;;;;;;;3.38;2.20;;;;;;;;;;5075256;28;20044;-25
2022/04/01 03:31:22;;;;;;;4.32;2.15;;;;;;;;;;5075520;28;20040;-26
2022/04/01 03:33:48;;;;;;;2.38;1.92;;;;;;;;;;5075296;28;20119;-26
2022/04/01 03:36:14;;;;;;;3.55;2.15;;;;;;;;;;5074907;28;20129;-25
2022/04/01 03:38:41;;;;;;;5.18;2.42;;;;;;;;;;5074471;28;20595;-25
2022/04/01 03:41:08;;;;;;;3.63;2.47;;;;;;;;;;5074247;28;20076;-26
2022/04/01 03:43:35;;;;;;;3.63;2.08;;;;;;;;;;5074510;28;20523;-26
2022/04/01 03:46:05;;;;;;;4.90;2.42;;;;;;;;;;5074319;28;20086;-27
2022/04/01 03:48:38;;;;;;;3.38;2.10;;;;;;;;;;5074353;28;20040;-25
2022/04/01 03:51:05;;;;;;;4.27;2.50;;;;;;;;;;5073973;28;20036;-26
2022/04/01 03:53:31;;;;;;;2.72;1.95;;;;;;;;;;5074280;28;20044;-27
2022/04/01 03:55:59;;;;;;;4.38;2.42;;;;;;;;;;5074275;28;20486;-25
2022/04/01 03:58:29;;;;;;;3.25;2.47;;;;;;;;;;5074351;28;20123;-26
2022/04/01 04:00:57;;;;;;;5.15;2.20;;;;;;;;;;5073907;28;20067;-26
2022/04/01 04:03:24;;;;;;;3.15;2.42;;;;;;;;;;5073910;28;20033;-25
2022/04/01 04:05:51;;;;;;;3.00;2.17;;;;;;;;;;5073974;28;20105;-26
2022/04/01 04:08:18;;;;;;;4.45;2.88;;;;;;;;;;5073629;28;20184;-28
2022/04/01 04:10:46;;;;;;;5.03;2.60;;;;;;;;;;5074755;28;20101;-30
2022/04/01 04:13:13;;;;;;;3.65;1.95;;;;;;;;;;5075077;28;20032;-29
2022/04/01 04:15:46;;;;;;;3.25;2.30;;;;;;;;;;5074340;28;20436;-32
2022/04/01 04:18:12;;;;;;;4.47;2.30;;;;;;;;;;5072760;28;20032;-28
2022/04/01 04:20:41;;;;;;;3.95;2.40;;;;;;;;;;5073100;28;20403;-30
2022/04/01 04:23:17;;;;;;;6.15;2.13;;;;;;;;;;5072778;28;20554;-29
2022/04/01 04:25:48;;;;;;;3.88;1.90;;;;;;;;;;5073230;28;20040;-32
2022/04/01 04:28:20;;;;;;;2.55;2.03;;;;;;;;;;5073357;28;20040;-29
2022/04/01 04:30:50;;;;;;;2.72;2.00;;;;;;;;;;5072915;28;20044;-32
2022/04/01 04:33:19;;;;;;;3.47;2.60;;;;;;;;;;5072596;28;20397;-29
2022/04/01 04:35:48;;;;;;;3.42;2.42;;;;;;;;;;5070484;28;20041;-30
2022/04/01 04:38:16;;;;;;;3.17;2.63;;;;;;;;;;5064901;28;20566;-28
2022/04/01 04:40:43;;;;;;;3.50;2.40;;;;;;;;;;5072790;28;20036;-29
2022/04/01 04:43:10;;;;;;;3.30;2.40;;;;;;;;;;5072730;28;20078;-29
2022/04/01 04:45:37;;;;;;;3.70;2.25;;;;;;;;;;5072685;28;20048;-29
2022/04/01 04:48:04;;;;;;;4.93;2.05;;;;;;;;;;5072917;28;20389;-28
2022/04/01 04:50:31;;;;;;;4.63;2.03;;;;;;;;;;5072743;28;20068;-29
2022/04/01 04:52:57;;;;;;;3.38;2.20;;;;;;;;;;5072408;28;20115;-29
2022/04/01 04:55:25;;;;;;;4.57;2.42;;;;;;;;;;5072421;28;20040;-29
2022/04/01 04:57:52;;;;;;;2.58;2.17;;;;;;;;;;5054890;28;20067;-29
2022/04/01 05:00:19;;;;;;;5.72;2.55;;;;;;;;;;5072281;28;20098;-30
2022/04/01 05:02:52;;;;;;;2.88;1.92;;;;;;;;;;5072182;28;20119;-31
2022/04/01 05:05:24;;;;;;;3.03;2.17;;;;;;;;;;5072286;28;20039;-28
2022/04/01 05:08:10;;;;;;;3.50;1.92;;;;;;;;;;5054382;28;20601;-29
2022/04/01 05:10:42;;;;;;;2.35;2.15;;;;;;;;;;5072075;28;20043;-30
2022/04/01 05:13:23;;;;;;;3.13;2.33;;;;;;;;;;5054029;28;20040;-28
2022/04/01 05:15:53;;;;;;;4.82;2.42;;;;;;;;;;5070151;28;20568;-33
2022/04/01 05:18:25;;;;;;;3.22;1.92;;;;;;;;;;5040335;28;20130;-30
2022/04/01 05:20:58;;;;;;;4.57;2.13;;;;;;;;;;5062281;28;20478;-28
2022/04/01 05:23:43;;;;;;;2.63;2.20;;;;;;;;;;5061953;28;20048;-28
2022/04/01 05:26:13;;;;;;;4.22;2.00;;;;;;;;;;5064935;28;20045;-28
2022/04/01 05:28:41;;;;;;;3.47;2.05;;;;;;;;;;5072405;28;20036;-28
2022/04/01 05:31:10;;;;;;;3.85;2.40;;;;;;;;;;5071866;28;20115;-29
2022/04/01 05:33:47;;;;;;;2.83;2.28;;;;;;;;;;5071914;28;20062;-30
2022/04/01 05:36:14;;;;;;;4.38;2.63;;;;;;;;;;5072678;28;20033;-31
2022/04/01 05:38:43;;;;;;;2.50;2.30;;;;;;;;;;5046892;28;20044;-29
2022/04/01 05:41:10;;;;;;;3.05;2.22;;;;;;;;;;5071995;28;20505;-29
2022/04/01 05:43:36;;;;;;;3.35;2.30;;;;;;;;;;5072316;28;20448;-27
2022/04/01 05:46:03;;;;;;;3.22;2.22;;;;;;;;;;5072122;28;20036;-29
2022/04/01 05:48:31;;;;;;;3.58;2.33;;;;;;;;;;5070622;28;20045;-29
2022/04/01 05:50:57;;;;;;;6.38;2.25;;;;;;;;;;5071180;28;20156;-29
2022/04/01 05:53:23;;;;;;;3.22;2.15;;;;;;;;;;5071116;28;20043;-28
2022/04/01 05:55:51;;;;;;;3.75;2.33;;;;;;;;;;5071188;28;20040;-29
2022/04/01 05:58:17;;;;;;;2.78;1.90;;;;;;;;;;5071191;28;20129;-29
2022/04/01 06:01:10;;;;;;;2.55;1.98;;;;;;;;;;5070654;28;20036;-28
2022/04/01 06:03:54;;;;;;;3.95;2.25;;;;;;;;;;5033532;28;20106;-29
2022/04/01 06:06:22;;;;;;;4.10;2.55;;;;;;;;;;5037277;28;20128;-29
2022/04/01 06:08:54;;;;;;;4.40;2.40;;;;;;;;;;5071708;28;20074;-28
2022/04/01 06:11:23;;;;;;;2.10;1.90;;;;;;;;;;5071342;28;20090;-31
2022/04/01 06:13:54;;;;;;;2.80;2.00;;;;;;;;;;5056345;28;20044;-28
2022/04/01 06:16:24;;;;;;;4.35;2.38;;;;;;;;;;5071697;28;20036;-29
2022/04/01 06:19:11;;;;;;;3.30;2.00;;;;;;;;;;5067755;28;20060;-28
2022/04/01 06:21:47;;;;;;;7.13;1.80;;;;;;;;;;5056507;28;20040;-29
2022/04/01 06:24:29;;;;;;;3.25;1.90;;;;;;;;;;5059422;28;20072;-28
2022/04/01 06:27:00;;;;;;;4.88;1.75;;;;;;;;;;5058401;28;20041;-29
2022/04/01 06:29:39;;;;;;;2.08;1.63;;;;;;;;;;5065955;28;20115;-28
2022/04/01 06:32:12;;;;;;;5.28;1.38;;;;;;;;;;5070916;28;20409;-31
2022/04/01 06:34:48;;;;;;;2.07;1.60;;;;;;;;;;5071538;28;20041;-27
2022/04/01 06:37:21;;;;;;;3.05;1.52;;;;;;;;;;5071169;28;20037;-28
2022/04/01 06:39:54;;;;;;;1.98;1.52;;;;;;;;;;5070954;28;20374;-28
2022/04/01 06:42:23;;;;;;;2.35;1.05;;;;;;;;;;5070799;28;20053;-30
2022/04/01 06:44:49;;;;;;;1.48;1.17;;;;;;;;;;5071441;28;20040;-27
2022/04/01 06:47:15;;;;;;;1.40;1.30;;;;;;;;;;5070792;28;20229;-29
2022/04/01 06:49:41;;;;;;;2.10;1.20;;;;;;;;;;5036772;28;20073;-29
2022/04/01 06:52:08;;;;;;;0.95;0.85;;;;;;;;;;5053099;28;20044;-29
2022/04/01 06:54:35;;;;;;;3.28;1.20;;;;;;;;;;5070858;28;20105;-28
2022/04/01 06:57:01;;;;;;;1.20;1.05;;;;;;;;;;5071005;28;20076;-28
2022/04/01 06:59:27;;;;;;;1.63;1.20;;;;;;;;;;5070871;28;20043;-29
2022/04/01 07:01:54;;;;;;;1.98;1.50;;;;;;;;;;5042057;28;20037;-27
2022/04/01 07:04:20;;;;;;;1.30;1.20;;;;;;;;;;5066659;28;20032;-28
2022/04/01 07:06:47;;;;;;;1.60;1.20;;;;;;;;;;5070572;28;20035;-28
2022/04/01 07:09:13;;;;;;;4.88;1.45;;;;;;;;;;5061503;28;20056;-28
2022/04/01 07:11:40;;;;;;;1.23;1.15;;;;;;;;;;5067176;28;20036;-29
2022/04/01 07:14:06;;;;;;;2.05;1.38;;;;;;;;;;5057972;28;20047;-29
2022/04/01 07:16:32;;;;;;;1.98;1.40;;;;;;;;;;5059809;28;20090;-29
2022/04/01 07:18:58;;;;;;;1.83;1.23;;;;;;;;;;5061326;28;20102;-28
2022/04/01 07:21:24;;;;;;;2.92;1.50;;;;;;;;;;5070417;28;20135;-28
2022/04/01 07:23:50;;;;;;;3.67;1.60;;;;;;;;;;5070678;28;20052;-27
2022/04/01 07:26:16;;;;;;;2.80;1.50;;;;;;;;;;5070792;28;20510;-31
2022/04/01 07:28:42;;;;;;;2.95;1.75;;;;;;;;;;5070874;28;20036;-28
2022/04/01 07:33:53;;;;;;;3.58;1.50;;;;;;;;;;5063865;28;20041;-30
2022/04/01 07:36:20;;;;;;;2.78;1.58;;;;;;;;;;5061278;28;20068;-29
2022/04/01 07:38:46;;;;;;;2.40;1.60;;;;;;;;;;5058832;28;20044;-29
2022/04/01 07:41:12;;;;;;;3.10;1.70;;;;;;;;;;5061015;28;20044;-29
2022/04/01 07:43:39;;;;;;;2.83;1.70;;;;;;;;;;5060785;28;20072;-27
2022/04/01 07:46:05;;;;;;;3.35;1.70;;;;;;;;;;5069319;28;20477;-28
2022/04/01 07:48:31;;;;;;;3.80;1.50;;;;;;;;;;5063686;28;20056;-28
2022/04/01 07:50:57;;;;;;;3.42;1.92;;;;;;;;;;5060200;28;20087;-28
2022/04/01 07:53:23;;;;;;;2.88;1.60;;;;;;;;;;5065755;28;20037;-27
2022/04/01 07:55:49;;;;;;;5.35;1.70;;;;;;;;;;5071961;28;20119;-28
2022/04/01 07:58:18;;;;;;;3.50;1.92;;;;;;;;;;5074218;28;20052;-29
2022/04/01 08:00:44;;;;;;;2.60;1.65;;;;;;;;;;5066560;28;20040;-29
2022/04/01 08:03:11;;;;;;;3.30;2.13;;;;;;;;;;5066770;28;20553;-28
2022/04/01 08:05:37;;;;;;;3.30;2.20;;;;;;;;;;5063802;28;20064;-31
2022/04/01 08:08:03;;;;;;;3.60;2.22;;;;;;;;;;5060843;28;20071;-30
2022/04/01 08:10:29;;;;;;;3.20;2.10;;;;;;;;;;5063199;28;20033;-30
2022/04/01 08:12:56;;;;;;;2.40;2.10;;;;;;;;;;5061095;28;20082;-30
2022/04/01 08:15:22;;;;;;;3.95;2.25;;;;;;;;;;5045772;28;20545;-29
2022/04/01 08:17:48;;;;;;;4.68;2.38;;;;;;;;;;5069293;28;20512;-29
2022/04/01 08:20:14;;;;;;;4.07;2.70;;;;;;;;;;5067051;28;20044;-29
2022/04/01 08:22:41;;;;;;;3.80;2.15;;;;;;;;;;5054754;28;20037;-30
2022/04/01 08:25:07;;;;;;;3.55;2.55;;;;;;;;;;5073105;28;20486;-30
2022/04/01 08:27:33;;;;;;;3.75;2.28;;;;;;;;;;5055157;28;20043;-29
2022/04/01 08:30:00;;;;;;;4.50;2.63;;;;;;;;;;5072956;28;20037;-31
2022/04/01 08:32:27;;;;;;;4.80;2.70;;;;;;;;;;5071802;28;20036;-29
2022/04/01 08:34:53;;;;;;;2.83;2.55;;;;;;;;;;5072654;28;20116;-30
2022/04/01 08:37:19;;;;;;;4.32;3.00;;;;;;;;;;5066852;28;20214;-30
2022/04/01 08:39:47;;;;;;;4.40;2.90;;;;;;;;;;5072723;28;20036;-29
2022/04/01 08:42:13;;;;;;;4.55;2.92;;;;;;;;;;5072598;28;20051;-31
2022/04/01 08:44:42;;;;;;;4.43;3.75;;;;;;;;;;5072699;28;20101;-31
2022/04/01 08:47:09;;;;;;;5.80;3.30;;;;;;;;;;5072854;28;20082;-29
2022/04/01 08:49:35;;;;;;;5.43;3.10;;;;;;;;;;5072006;28;20036;-30
2022/04/01 08:52:02;;;;;;;5.20;3.50;;;;;;;;;;5071476;28;20042;-28
2022/04/01 08:54:31;;;;;;;5.57;3.38;;;;;;;;;;5068006;28;20124;-28
2022/04/01 08:56:57;;;;;;;3.72;3.33;;;;;;;;;;5071618;28;20079;-29
2022/04/01 08:59:27;;;;;;;4.75;3.35;;;;;;;;;;5068174;28;20040;-29
2022/04/01 09:02:01;;;;;;;4.07;3.67;;;;;;;;;;5071832;28;20036;-31
2022/04/01 09:04:28;;;;;;;5.70;3.50;;;;;;;;;;5071395;28;20036;-31
2022/04/01 09:06:54;;;;;;;6.72;3.67;;;;;;;;;;5072809;28;20032;-29
2022/04/01 09:09:25;;;;;;;5.80;3.95;;;;;;;;;;5073687;28;20041;-31
2022/04/01 09:12:11;;;;;;;5.72;4.28;;;;;;;;;;5072758;28;20520;-26
2022/04/01 09:14:37;;;;;;;5.60;4.53;;;;;;;;;;5072767;28;20743;-27
2022/04/01 09:17:05;;;;;;;7.40;4.70;;;;;;;;;;5072164;28;20479;-26
2022/04/01 09:19:32;;;;;;;6.45;5.25;;;;;;;;;;5072243;28;20522;-26
2022/04/01 09:21:58;;;;;;;6.70;4.85;;;;;;;;;;5072895;28;20040;-26
2022/04/01 09:24:25;;;;;;;7.93;5.10;;;;;;;;;;5072875;28;20041;-27
2022/04/01 09:26:55;;;;;;;5.78;5.13;;;;;;;;;;5072311;28;20040;-26
2022/04/01 09:29:21;;;;;;;8.77;6.00;;;;;;;;;;5072531;28;20059;-26
2022/04/01 09:31:52;;;;;;;6.57;4.90;;;;;;;;;;5072596;28;20058;-26
2022/04/01 09:34:18;;;;;;;8.07;4.95;;;;;;;;;;5072533;28;20564;-26
2022/04/01 09:36:45;;;;;;;7.25;5.82;;;;;;;;;;5072778;28;20499;-26
2022/04/01 09:39:11;;;;;;;6.10;5.50;;;;;;;;;;5037747;28;20123;-26
2022/04/01 09:41:39;;;;;;;6.40;5.30;;;;;;;;;;5072690;28;20044;-26
2022/04/01 09:44:08;;;;;;;7.78;5.72;;;;;;;;;;5072356;28;20563;-27
2022/04/01 09:46:34;;;;;;;7.22;5.55;;;;;;;;;;5072818;28;20045;-26
2022/04/01 09:49:00;;;;;;;7.28;5.63;;;;;;;;;;5072674;28;20052;-28
2022/04/01 09:51:31;;;;;;;6.20;5.60;;;;;;;;;;5072896;28;20127;-28
2022/04/01 09:54:02;;;;;;;7.38;5.60;;;;;;;;;;5072589;28;20044;-26
2022/04/01 09:56:49;;;;;;;6.78;5.97;;;;;;;;;;5072344;28;20063;-27
2022/04/01 09:59:16;;;;;;;6.72;5.75;;;;;;;;;;5071727;28;20083;-26
2022/04/01 10:01:43;;;;;;;8.82;6.07;;;;;;;;;;5072120;28;20284;-26
2022/04/01 10:04:10;;;;;;;5.88;5.28;;;;;;;;;;5072044;28;20119;-27
2022/04/01 10:06:37;;;;;;;6.32;5.72;;;;;;;;;;5054034;28;20044;-27
2022/04/01 10:09:10;;;;;;;7.40;6.05;;;;;;;;;;5071955;28;20062;-26
2022/04/01 10:11:37;;;;;;;8.77;5.83;;;;;;;;;;5071952;28;20102;-23
2022/04/01 10:14:06;;;;;;;9.00;6.18;;;;;;;;;;5071106;28;20279;-26
2022/04/01 10:16:34;;;;;;;7.85;6.13;;;;;;;;;;5071557;28;20036;-26
2022/04/01 10:19:03;;;;;;;7.15;6.45;;;;;;;;;;5071503;28;20040;-28
2022/04/01 10:21:29;;;;;;;6.32;5.72;;;;;;;;;;5071849;28;20553;-26
2022/04/01 10:24:06;;;;;;;7.68;6.30;;;;;;;;;;5071478;28;20040;-26
2022/04/01 10:26:33;;;;;;;9.15;6.78;;;;;;;;;;5072007;28;20401;-26
2022/04/01 10:28:59;;;;;;;8.10;6.72;;;;;;;;;;5071756;28;20072;-26
2022/04/01 10:31:25;;;;;;;8.63;6.90;;;;;;;;;;5071733;28;20529;-27
2022/04/01 10:33:51;;;;;;;7.80;6.07;;;;;;;;;;5071708;28;20063;-26
2022/04/01 10:36:27;;;;;;;7.15;6.45;;;;;;;;;;5071324;28;20040;-26
2022/04/01 10:39:00;;;;;;;8.40;6.53;;;;;;;;;;5071144;28;20505;-26
2022/04/01 10:41:26;;;;;;;6.63;5.88;;;;;;;;;;5071503;28;20166;-26
2022/04/01 10:43:55;;;;;;;7.63;6.40;;;;;;;;;;5071454;28;20036;-27
2022/04/01 10:46:21;;;;;;;7.82;6.68;;;;;;;;;;5071078;28;20059;-27
2022/04/01 10:52:03;;;;;;;7.22;6.10;;;;;;;;;;5070997;28;20040;-26
2022/04/01 10:54:29;;;;;;;6.57;5.72;;;;;;;;;;5071129;28;20040;-26
2022/04/01 10:56:56;;;;;;;6.40;5.72;;;;;;;;;;5071423;28;20041;-25
2022/04/01 10:59:26;;;;;;;5.55;4.80;;;;;;;;;;5071743;28;20055;-26
2022/04/01 11:01:52;;;;;;;6.28;5.50;;;;;;;;;;5071320;28;20481;-26
2022/04/01 11:04:18;;;;;;;5.75;4.90;;;;;;;;;;5071282;28;20036;-28
2022/04/01 11:06:53;;;;;;;5.25;4.82;;;;;;;;;;5071297;28;20037;-26
2022/04/01 11:09:39;;;;;;;6.22;4.40;;;;;;;;;;5071228;28;20398;-28
2022/04/01 11:14:55;;;;;;;4.68;3.65;;;;;;;;;;5070869;28;20082;-26
2022/04/01 11:17:26;;;;;;;5.68;4.35;;;;;;;;;;5070973;28;20037;-26
2022/04/01 11:20:04;;;;;;;4.80;3.83;;;;;;;;;;5070871;28;20080;-26
2022/04/01 11:22:34;;;;;;;4.63;3.83;;;;;;;;;;5070740;28;20071;-26
2022/04/01 11:25:00;;;;;;;4.13;3.72;;;;;;;;;;5071006;28;20048;-27
2022/04/01 11:27:26;;;;;;;7.13;4.00;;;;;;;;;;5074188;28;20154;-26
2022/04/01 11:30:06;;;;;;;4.68;3.30;;;;;;;;;;5074545;28;20036;-26
2022/04/01 11:32:35;;;;;;;3.40;3.00;;;;;;;;;;5074523;28;20109;-27
2022/04/01 11:35:01;;;;;;;3.33;3.00;;;;;;;;;;5074671;28;20063;-30
2022/04/01 11:37:28;;;;;;;4.15;2.72;;;;;;;;;;5074368;28;20402;-26
2022/04/01 11:39:54;;;;;;;4.53;3.13;;;;;;;;;;5074674;28;20083;-30
2022/04/01 11:42:20;;;;;;;4.90;2.78;;;;;;;;;;5074488;28;20051;-26
2022/04/01 11:44:56;;;;;;;4.30;3.00;;;;;;;;;;5074209;28;20051;-27
2022/04/01 11:47:37;;;;;;;2.97;2.47;;;;;;;;;;5074393;28;20506;-26
2022/04/01 11:50:07;;;;;;;2.95;2.50;;;;;;;;;;5074356;28;20085;-27
2022/04/01 11:52:43;;;;;;;3.90;2.65;;;;;;;;;;5073925;28;20047;-25
2022/04/01 11:55:13;;;;;;;3.17;2.60;;;;;;;;;;5074160;28;20490;-26
2022/04/01 11:57:40;;;;;;;3.58;2.78;;;;;;;;;;5074371;28;20045;-26
2022/04/01 12:00:25;;;;;;;3.00;2.80;;;;;;;;;;5074214;28;20049;-27
2022/04/01 12:02:52;;;;;;;2.78;2.50;;;;;;;;;;5073964;28;20060;-25
2022/04/01 12:05:19;;;;;;;5.30;2.40;;;;;;;;;;5074183;28;20044;-28
2022/04/01 12:10:42;;;;;;;4.85;2.95;;;;;;;;;;5074058;28;20393;-27
2022/04/01 12:13:09;;;;;;;4.78;3.42;;;;;;;;;;5073804;28;20078;-26
2022/04/01 12:15:39;;;;;;;3.35;2.65;;;;;;;;;;5074046;28;20455;-27
2022/04/01 12:18:10;;;;;;;4.40;2.60;;;;;;;;;;5073946;28;20051;-26
2022/04/01 12:20:40;;;;;;;5.45;2.28;;;;;;;;;;5073773;28;20047;-26
2022/04/01 12:23:07;;;;;;;3.17;2.45;;;;;;;;;;5073348;28;20044;-26
2022/04/01 12:25:34;;;;;;;3.13;2.42;;;;;;;;;;5073634;28;20153;-28
2022/04/01 12:28:04;;;;;;;3.75;2.03;;;;;;;;;;5073677;28;20047;-27
2022/04/01 12:30:59;;;;;;;2.88;2.10;;;;;;;;;;5074178;28;20037;-26
2022/04/01 12:33:30;;;;;;;4.32;2.67;;;;;;;;;;5052637;28;20048;-25
2022/04/01 12:35:59;;;;;;;3.17;2.22;;;;;;;;;;5073594;28;20083;-27
2022/04/01 12:38:27;;;;;;;2.80;2.08;;;;;;;;;;5072684;28;20032;-27
2022/04/01 12:40:57;;;;;;;4.00;2.30;;;;;;;;;;5073244;28;20055;-26
2022/04/01 12:43:33;;;;;;;5.43;2.40;;;;;;;;;;5073642;28;20513;-26
2022/04/01 12:46:06;;;;;;;4.18;2.30;;;;;;;;;;5073777;28;20200;-26
2022/04/01 12:48:44;;;;;;;4.57;2.33;;;;;;;;;;5073642;28;20439;-27
2022/04/01 12:51:16;;;;;;;3.25;1.95;;;;;;;;;;5073597;28;20036;-25
2022/04/01 12:53:51;;;;;;;3.88;2.20;;;;;;;;;;5073581;28;20478;-26
2022/04/01 12:56:19;;;;;;;3.67;2.20;;;;;;;;;;5073051;28;20033;-26
2022/04/01 12:58:48;;;;;;;4.28;2.38;;;;;;;;;;5053381;28;20530;-26
2022/04/01 13:01:14;;;;;;;2.78;1.90;;;;;;;;;;5062421;28;20043;-26
2022/04/01 13:03:44;;;;;;;2.38;1.98;;;;;;;;;;5054074;28;20041;-27
2022/04/01 13:06:14;;;;;;;3.92;2.33;;;;;;;;;;5036594;28;20390;-26
2022/04/01 13:08:41;;;;;;;3.17;2.30;;;;;;;;;;5072691;28;20592;-31
2022/04/01 13:11:11;;;;;;;3.40;2.25;;;;;;;;;;5068756;28;20045;-26
2022/04/01 13:13:37;;;;;;;3.97;2.15;;;;;;;;;;5072505;28;20051;-26
2022/04/01 13:16:03;;;;;;;4.82;2.22;;;;;;;;;;5071938;28;20088;-26
2022/04/01 13:18:32;;;;;;;2.95;1.80;;;;;;;;;;5072559;28;20136;-26
2022/04/01 13:20:58;;;;;;;4.82;2.20;;;;;;;;;;5072404;28;20046;-26
2022/04/01 13:23:30;;;;;;;2.22;2.00;;;;;;;;;;5072287;28;20047;-26
2022/04/01 13:25:57;;;;;;;4.00;1.92;;;;;;;;;;5072518;28;20448;-25
2022/04/01 13:28:23;;;;;;;3.88;2.10;;;;;;;;;;5071738;28;20044;-26
2022/04/01 13:30:49;;;;;;;2.58;1.95;;;;;;;;;;5069812;28;20075;-27
2022/04/01 13:33:18;;;;;;;2.90;2.22;;;;;;;;;;5071545;28;20028;-26
2022/04/01 13:35:44;;;;;;;2.15;1.90;;;;;;;;;;5071745;28;20288;-26
2022/04/01 13:38:10;;;;;;;2.42;1.88;;;;;;;;;;5053996;28;20384;-26
2022/04/01 13:40:36;;;;;;;3.20;2.05;;;;;;;;;;5072620;28;20583;-26
2022/04/01 13:43:03;;;;;;;2.15;2.00;;;;;;;;;;5052421;28;20044;-25
2022/04/01 13:45:30;;;;;;;2.67;2.00;;;;;;;;;;5052625;28;20041;-28
2022/04/01 13:47:58;;;;;;;3.42;1.77;;;;;;;;;;5054950;28;20124;-27
2022/04/01 13:50:24;;;;;;;2.38;2.17;;;;;;;;;;5069632;28;20109;-26
2022/04/01 13:52:50;;;;;;;3.03;1.85;;;;;;;;;;5068802;28;20105;-25
2022/04/01 13:55:17;;;;;;;3.70;2.20;;;;;;;;;;5069292;28;20043;-27
2022/04/01 13:57:43;;;;;;;4.18;2.65;;;;;;;;;;5069398;28;20306;-26
2022/04/01 14:00:10;;;;;;;3.38;2.42;;;;;;;;;;5069118;28;20067;-25
2022/04/01 14:02:37;;;;;;;3.25;2.40;;;;;;;;;;5068603;28;20113;-30
2022/04/01 14:05:03;;;;;;;2.97;2.20;;;;;;;;;;5070379;28;20075;-31
2022/04/01 14:07:29;;;;;;;2.88;2.20;;;;;;;;;;5070996;28;20044;-31
2022/04/01 14:09:55;;;;;;;4.55;2.40;;;;;;;;;;5070701;28;20037;-31
2022/04/01 14:12:22;;;;;;;5.45;2.20;;;;;;;;;;5052762;28;20044;-29
2022/04/01 14:14:48;;;;;;;3.33;2.10;;;;;;;;;;5071055;28;20452;-30
2022/04/01 14:17:14;;;;;;;3.38;2.33;;;;;;;;;;5070961;28;20043;-30
2022/04/01 14:19:40;;;;;;;5.13;2.20;;;;;;;;;;5070935;28;20040;-29
2022/04/01 14:22:06;;;;;;;2.30;2.10;;;;;;;;;;5070377;28;20068;-31
2022/04/01 14:24:32;;;;;;;3.80;2.38;;;;;;;;;;5071255;28;20036;-30
2022/04/01 14:26:58;;;;;;;3.15;2.00;;;;;;;;;;5070468;28;20040;-30
2022/04/01 14:32:09;;;;;;;5.20;2.58;;;;;;;;;;5070286;28;20178;-29
2022/04/01 14:34:36;;;;;;;4.85;2.50;;;;;;;;;;5070726;28;20036;-29
2022/04/01 14:37:03;;;;;;;2.53;2.10;;;;;;;;;;5070699;28;20514;-29
2022/04/01 14:39:29;;;;;;;4.15;2.60;;;;;;;;;;5070398;28;20044;-30
2022/04/01 14:41:56;;;;;;;3.47;2.90;;;;;;;;;;5070772;28;20459;-29
2022/04/01 14:44:23;;;;;;;3.83;2.97;;;;;;;;;;5071888;28;20032;-30
2022/04/01 14:46:49;;;;;;;6.07;2.80;;;;;;;;;;5071494;28;20418;-30
2022/04/01 14:49:19;;;;;;;3.85;2.63;;;;;;;;;;5071184;28;20044;-28
2022/04/01 14:51:45;;;;;;;7.18;2.63;;;;;;;;;;5070191;28;20037;-29
2022/04/01 14:54:13;;;;;;;4.05;2.58;;;;;;;;;;5052802;28;20098;-29
2022/04/01 14:56:39;;;;;;;3.35;2.53;;;;;;;;;;5070536;28;20044;-30
2022/04/01 14:59:06;;;;;;;4.00;2.17;;;;;;;;;;5070692;28;20498;-30
2022/04/01 15:01:33;;;;;;;3.30;2.17;;;;;;;;;;5072450;28;20040;-29
2022/04/01 15:04:00;;;;;;;3.42;2.22;;;;;;;;;;5074165;28;20123;-29
2022/04/01 15:06:26;;;;;;;3.15;2.03;;;;;;;;;;5074136;28;20044;-29
2022/04/01 15:08:53;;;;;;;2.72;2.08;;;;;;;;;;5056370;28;20040;-30